sensor_id;sensor_type;location;lat;lon;timestamp;pressure;altitude;pressure_sealevel;temperature;humidity
51439;BME280;38816;51.142;-0.974;2023-04-15T00:02:17;99408.63;;;5.29;100.00
51439;BME280;38816;51.142;-0.974;2023-04-15T00:04:46;99412.06;;;5.31;100.00
51439;BME280;38816;51.142;-0.974;2023-04-15T00:07:12;99402.66;;;5.28;100.00
51439;BME280;38816;51.142;-0.974;2023-04-15T00:09:38;99424.69;;;5.26;100.00
51439;BME280;38816;51.142;-0.974;2023-04-15T00:12:04;99407.47;;;5.18;100.00
51439;BME280;38816;51.142;-0.974;2023-04-15T00:14:29;99409.28;;;5.22;100.00
51439;BME280;38816;51.142;-0.974;2023-04-15T00:16:55;99416.13;;;5.23;100.00
51439;BME280;38816;51.142;-0.974;2023-04-15T00:19:22;99421.38;;;5.30;100.00
51439;BME280;38816;51.142;-0.974;2023-04-15T00:21:48;99422.91;;;5.22;100.00
51439;BME280;38816;51.142;-0.974;2023-04-15T00:24:13;99426.34;;;5.24;100.00
51439;BME280;38816;51.142;-0.974;2023-04-15T00:26:39;99417.75;;;5.21;100.00
51439;BME280;38816;51.142;-0.974;2023-04-15T00:29:05;99427.09;;;5.20;100.00
51439;BME280;38816;51.142;-0.974;2023-04-15T00:31:30;99421.06;;;5.17;100.00
51439;BME280;38816;51.142;-0.974;2023-04-15T00:33:56;99405.59;;;5.09;100.00
51439;BME280;38816;51.142;-0.974;2023-04-15T00:36:21;99412.47;;;5.13;100.00
51439;BME280;38816;51.142;-0.974;2023-04-15T00:38:47;99408.16;;;5.09;100.00
51439;BME280;38816;51.142;-0.974;2023-04-15T00:41:13;99402.34;;;5.15;100.00
51439;BME280;38816;51.142;-0.974;2023-04-15T00:43:38;99428.75;;;5.18;100.00
51439;BME280;38816;51.142;-0.974;2023-04-15T00:46:04;99428.78;;;5.20;100.00
51439;BME280;38816;51.142;-0.974;2023-04-15T00:48:31;99429.03;;;5.30;100.00
51439;BME280;38816;51.142;-0.974;2023-04-15T00:50:56;99422.84;;;5.21;100.00
51439;BME280;38816;51.142;-0.974;2023-04-15T00:53:22;99432.41;;;5.29;100.00
51439;BME280;38816;51.142;-0.974;2023-04-15T00:55:48;99431.34;;;5.21;100.00
51439;BME280;38816;51.142;-0.974;2023-04-15T00:58:13;99447.50;;;5.22;100.00
51439;BME280;38816;51.142;-0.974;2023-04-15T01:00:39;99436.63;;;5.27;100.00
51439;BME280;38816;51.142;-0.974;2023-04-15T01:03:05;99450.13;;;5.25;100.00
51439;BME280;38816;51.142;-0.974;2023-04-15T01:05:31;99452.72;;;5.26;100.00
51439;BME280;38816;51.142;-0.974;2023-04-15T01:07:57;99439.69;;;5.14;100.00
51439;BME280;38816;51.142;-0.974;2023-04-15T01:10:22;99448.94;;;5.11;100.00
51439;BME280;38816;51.142;-0.974;2023-04-15T01:12:48;99451.56;;;5.14;100.00
51439;BME280;38816;51.142;-0.974;2023-04-15T01:15:13;99453.28;;;5.15;100.00
51439;BME280;38816;51.142;-0.974;2023-04-15T01:17:40;99454.38;;;5.24;100.00
51439;BME280;38816;51.142;-0.974;2023-04-15T01:20:06;99470.53;;;5.25;100.00
51439;BME280;38816;51.142;-0.974;2023-04-15T01:22:35;99475.47;;;5.19;100.00
51439;BME280;38816;51.142;-0.974;2023-04-15T01:25:05;99463.31;;;5.08;100.00
51439;BME280;38816;51.142;-0.974;2023-04-15T01:27:33;99470.25;;;5.14;100.00
51439;BME280;38816;51.142;-0.974;2023-04-15T01:29:59;99457.19;;;5.00;100.00
51439;BME280;38816;51.142;-0.974;2023-04-15T01:32:25;99471.00;;;5.10;100.00
51439;BME280;38816;51.142;-0.974;2023-04-15T01:34:51;99470.88;;;5.05;100.00
51439;BME280;38816;51.142;-0.974;2023-04-15T01:37:16;99488.88;;;5.12;100.00
51439;BME280;38816;51.142;-0.974;2023-04-15T01:39:42;99507.50;;;5.09;100.00
51439;BME280;38816;51.142;-0.974;2023-04-15T01:42:07;99494.75;;;5.09;100.00
51439;BME280;38816;51.142;-0.974;2023-04-15T01:44:32;99499.63;;;5.00;100.00
51439;BME280;38816;51.142;-0.974;2023-04-15T01:46:58;99508.28;;;5.08;100.00
51439;BME280;38816;51.142;-0.974;2023-04-15T01:49:23;99519.41;;;5.10;100.00
51439;BME280;38816;51.142;-0.974;2023-04-15T01:51:49;99503.13;;;5.05;100.00
51439;BME280;38816;51.142;-0.974;2023-04-15T01:54:14;99519.09;;;4.99;100.00
51439;BME280;38816;51.142;-0.974;2023-04-15T01:56:39;99500.84;;;4.82;100.00
51439;BME280;38816;51.142;-0.974;2023-04-15T01:59:05;99507.75;;;4.87;100.00
51439;BME280;38816;51.142;-0.974;2023-04-15T02:01:30;99508.38;;;4.79;100.00
51439;BME280;38816;51.142;-0.974;2023-04-15T02:03:56;99520.50;;;4.88;100.00
51439;BME280;38816;51.142;-0.974;2023-04-15T02:06:21;99509.22;;;4.78;100.00
51439;BME280;38816;51.142;-0.974;2023-04-15T02:08:47;99539.06;;;4.84;100.00
51439;BME280;38816;51.142;-0.974;2023-04-15T02:11:12;99553.84;;;4.96;100.00
51439;BME280;38816;51.142;-0.974;2023-04-15T02:13:37;99542.75;;;4.95;100.00
51439;BME280;38816;51.142;-0.974;2023-04-15T02:16:03;99544.44;;;4.95;100.00
51439;BME280;38816;51.142;-0.974;2023-04-15T02:18:28;99531.47;;;4.86;100.00
51439;BME280;38816;51.142;-0.974;2023-04-15T02:20:54;99555.56;;;4.97;100.00
51439;BME280;38816;51.142;-0.974;2023-04-15T02:23:21;99555.47;;;4.94;100.00
51439;BME280;38816;51.142;-0.974;2023-04-15T02:25:46;99567.56;;;5.01;100.00
51439;BME280;38816;51.142;-0.974;2023-04-15T02:28:12;99567.38;;;4.95;100.00
51439;BME280;38816;51.142;-0.974;2023-04-15T02:30:37;99586.13;;;4.97;100.00
51439;BME280;38816;51.142;-0.974;2023-04-15T02:33:04;99575.94;;;4.97;100.00
51439;BME280;38816;51.142;-0.974;2023-04-15T02:35:31;99575.13;;;4.99;100.00
51439;BME280;38816;51.142;-0.974;2023-04-15T02:37:56;99580.28;;;5.01;100.00
51439;BME280;38816;51.142;-0.974;2023-04-15T02:40:22;99571.81;;;5.02;100.00
51439;BME280;38816;51.142;-0.974;2023-04-15T02:42:47;99588.81;;;5.03;100.00
51439;BME280;38816;51.142;-0.974;2023-04-15T02:45:13;99593.19;;;5.07;100.00
51439;BME280;38816;51.142;-0.974;2023-04-15T02:47:38;99586.22;;;5.00;100.00
51439;BME280;38816;51.142;-0.974;2023-04-15T02:50:10;99591.56;;;5.09;100.00
51439;BME280;38816;51.142;-0.974;2023-04-15T02:52:41;99587.84;;;4.98;100.00
51439;BME280;38816;51.142;-0.974;2023-04-15T02:55:07;99601.75;;;5.09;100.00
51439;BME280;38816;51.142;-0.974;2023-04-15T02:57:33;99607.56;;;5.05;100.00
51439;BME280;38816;51.142;-0.974;2023-04-15T03:00:02;99617.97;;;5.13;100.00
51439;BME280;38816;51.142;-0.974;2023-04-15T03:02:33;99613.00;;;5.17;100.00
51439;BME280;38816;51.142;-0.974;2023-04-15T03:04:59;99604.94;;;5.02;100.00
51439;BME280;38816;51.142;-0.974;2023-04-15T03:07:24;99607.47;;;5.02;100.00
51439;BME280;38816;51.142;-0.974;2023-04-15T03:09:50;99623.66;;;5.04;100.00
51439;BME280;38816;51.142;-0.974;2023-04-15T03:12:15;99606.50;;;4.97;100.00
51439;BME280;38816;51.142;-0.974;2023-04-15T03:14:41;99625.53;;;5.10;100.00
51439;BME280;38816;51.142;-0.974;2023-04-15T03:17:06;99624.72;;;5.11;100.00
51439;BME280;38816;51.142;-0.974;2023-04-15T03:19:32;99638.34;;;5.13;100.00
51439;BME280;38816;51.142;-0.974;2023-04-15T03:21:57;99642.53;;;5.11;100.00
51439;BME280;38816;51.142;-0.974;2023-04-15T03:24:22;99650.09;;;5.07;100.00
51439;BME280;38816;51.142;-0.974;2023-04-15T03:26:48;99646.84;;;5.13;100.00
51439;BME280;38816;51.142;-0.974;2023-04-15T03:29:14;99646.78;;;5.10;100.00
51439;BME280;38816;51.142;-0.974;2023-04-15T03:31:40;99646.25;;;5.22;100.00
51439;BME280;38816;51.142;-0.974;2023-04-15T03:34:05;99653.03;;;5.21;100.00
51439;BME280;38816;51.142;-0.974;2023-04-15T03:36:31;99656.97;;;5.10;100.00
51439;BME280;38816;51.142;-0.974;2023-04-15T03:38:59;99656.91;;;5.08;100.00
51439;BME280;38816;51.142;-0.974;2023-04-15T03:41:26;99663.66;;;5.06;100.00
51439;BME280;38816;51.142;-0.974;2023-04-15T03:43:52;99685.81;;;5.09;100.00
51439;BME280;38816;51.142;-0.974;2023-04-15T03:46:18;99677.25;;;5.07;100.00
51439;BME280;38816;51.142;-0.974;2023-04-15T03:48:43;99685.94;;;5.14;100.00
51439;BME280;38816;51.142;-0.974;2023-04-15T03:51:08;99696.00;;;5.09;100.00
51439;BME280;38816;51.142;-0.974;2023-04-15T03:53:34;99679.66;;;5.02;100.00
51439;BME280;38816;51.142;-0.974;2023-04-15T03:55:59;99689.88;;;5.04;100.00
51439;BME280;38816;51.142;-0.974;2023-04-15T03:58:25;99689.22;;;5.10;100.00
51439;BME280;38816;51.142;-0.974;2023-04-15T04:04:00;99704.78;;;5.19;100.00
51439;BME280;38816;51.142;-0.974;2023-04-15T04:06:25;99695.63;;;5.25;100.00
51439;BME280;38816;51.142;-0.974;2023-04-15T04:08:50;99697.00;;;5.14;100.00
51439;BME280;38816;51.142;-0.974;2023-04-15T04:11:16;99707.81;;;5.07;100.00
51439;BME280;38816;51.142;-0.974;2023-04-15T04:13:41;99710.38;;;5.07;100.00
51439;BME280;38816;51.142;-0.974;2023-04-15T04:16:06;99716.47;;;5.12;100.00
51439;BME280;38816;51.142;-0.974;2023-04-15T04:18:32;99714.63;;;5.08;100.00
51439;BME280;38816;51.142;-0.974;2023-04-15T04:20:58;99719.59;;;5.03;100.00
51439;BME280;38816;51.142;-0.974;2023-04-15T04:23:24;99728.06;;;5.02;100.00
51439;BME280;38816;51.142;-0.974;2023-04-15T04:25:49;99725.28;;;4.95;100.00
51439;BME280;38816;51.142;-0.974;2023-04-15T04:28:15;99740.19;;;5.10;100.00
51439;BME280;38816;51.142;-0.974;2023-04-15T04:30:40;99747.47;;;4.99;100.00
51439;BME280;38816;51.142;-0.974;2023-04-15T04:33:06;99754.59;;;5.09;100.00
51439;BME280;38816;51.142;-0.974;2023-04-15T04:35:32;99767.28;;;5.07;100.00
51439;BME280;38816;51.142;-0.974;2023-04-15T04:37:59;99762.88;;;5.02;100.00
51439;BME280;38816;51.142;-0.974;2023-04-15T04:40:25;99761.03;;;4.98;100.00
51439;BME280;38816;51.142;-0.974;2023-04-15T04:42:51;99752.50;;;4.96;100.00
51439;BME280;38816;51.142;-0.974;2023-04-15T04:45:17;99757.47;;;4.93;100.00
51439;BME280;38816;51.142;-0.974;2023-04-15T04:47:43;99769.28;;;4.91;100.00
51439;BME280;38816;51.142;-0.974;2023-04-15T04:50:08;99767.06;;;5.00;100.00
51439;BME280;38816;51.142;-0.974;2023-04-15T04:52:34;99768.56;;;4.95;100.00
51439;BME280;38816;51.142;-0.974;2023-04-15T04:54:59;99788.16;;;4.96;100.00
51439;BME280;38816;51.142;-0.974;2023-04-15T04:57:25;99787.13;;;4.91;100.00
51439;BME280;38816;51.142;-0.974;2023-04-15T04:59:50;99797.53;;;4.97;100.00
51439;BME280;38816;51.142;-0.974;2023-04-15T05:02:16;99809.47;;;4.99;100.00
51439;BME280;38816;51.142;-0.974;2023-04-15T05:04:41;99812.38;;;5.10;100.00
51439;BME280;38816;51.142;-0.974;2023-04-15T05:07:06;99818.16;;;5.04;100.00
51439;BME280;38816;51.142;-0.974;2023-04-15T05:09:32;99808.38;;;4.91;100.00
51439;BME280;38816;51.142;-0.974;2023-04-15T05:12:00;99813.50;;;4.93;100.00
51439;BME280;38816;51.142;-0.974;2023-04-15T05:14:25;99838.38;;;5.00;100.00
51439;BME280;38816;51.142;-0.974;2023-04-15T05:16:51;99847.75;;;5.01;100.00
51439;BME280;38816;51.142;-0.974;2023-04-15T05:19:16;99852.84;;;5.01;100.00
51439;BME280;38816;51.142;-0.974;2023-04-15T05:21:42;99859.78;;;5.05;100.00
51439;BME280;38816;51.142;-0.974;2023-04-15T05:24:07;99859.66;;;5.02;100.00
51439;BME280;38816;51.142;-0.974;2023-04-15T05:26:32;99854.25;;;4.93;100.00
51439;BME280;38816;51.142;-0.974;2023-04-15T05:28:58;99868.88;;;4.98;100.00
51439;BME280;38816;51.142;-0.974;2023-04-15T05:31:23;99873.09;;;4.98;100.00
51439;BME280;38816;51.142;-0.974;2023-04-15T05:33:48;99893.69;;;5.04;100.00
51439;BME280;38816;51.142;-0.974;2023-04-15T05:36:14;99892.72;;;5.00;100.00
51439;BME280;38816;51.142;-0.974;2023-04-15T05:38:39;99896.34;;;5.07;100.00
51439;BME280;38816;51.142;-0.974;2023-04-15T05:41:05;99906.53;;;5.07;100.00
51439;BME280;38816;51.142;-0.974;2023-04-15T05:43:30;99908.41;;;5.13;100.00
51439;BME280;38816;51.142;-0.974;2023-04-15T05:45:56;99915.44;;;5.20;100.00
51439;BME280;38816;51.142;-0.974;2023-04-15T05:48:21;99904.75;;;5.04;100.00
51439;BME280;38816;51.142;-0.974;2023-04-15T05:50:46;99915.84;;;5.06;100.00
51439;BME280;38816;51.142;-0.974;2023-04-15T05:53:12;99914.28;;;5.10;100.00
51439;BME280;38816;51.142;-0.974;2023-04-15T05:55:37;99924.56;;;5.13;100.00
51439;BME280;38816;51.142;-0.974;2023-04-15T05:58:03;99937.63;;;5.22;100.00
51439;BME280;38816;51.142;-0.974;2023-04-15T06:00:28;99935.41;;;5.33;100.00
51439;BME280;38816;51.142;-0.974;2023-04-15T06:02:55;99943.91;;;5.33;100.00
51439;BME280;38816;51.142;-0.974;2023-04-15T06:05:20;99950.59;;;5.30;100.00
51439;BME280;38816;51.142;-0.974;2023-04-15T06:07:46;99946.44;;;5.32;100.00
51439;BME280;38816;51.142;-0.974;2023-04-15T06:10:11;99964.41;;;5.37;100.00
51439;BME280;38816;51.142;-0.974;2023-04-15T06:12:36;99964.28;;;5.32;100.00
51439;BME280;38816;51.142;-0.974;2023-04-15T06:15:02;99966.03;;;5.34;100.00
51439;BME280;38816;51.142;-0.974;2023-04-15T06:17:28;99981.44;;;5.38;100.00
51439;BME280;38816;51.142;-0.974;2023-04-15T06:19:53;99981.56;;;5.41;100.00
51439;BME280;38816;51.142;-0.974;2023-04-15T06:22:23;99983.31;;;5.43;100.00
51439;BME280;38816;51.142;-0.974;2023-04-15T06:24:49;99987.41;;;5.38;100.00
51439;BME280;38816;51.142;-0.974;2023-04-15T06:27:15;99994.44;;;5.45;100.00
51439;BME280;38816;51.142;-0.974;2023-04-15T06:29:41;100003.59;;;5.40;100.00
51439;BME280;38816;51.142;-0.974;2023-04-15T06:32:06;100008.06;;;5.46;100.00
51439;BME280;38816;51.142;-0.974;2023-04-15T06:34:31;100006.38;;;5.46;100.00
51439;BME280;38816;51.142;-0.974;2023-04-15T06:36:57;100019.69;;;5.63;100.00
51439;BME280;38816;51.142;-0.974;2023-04-15T06:39:22;100008.69;;;5.66;100.00
51439;BME280;38816;51.142;-0.974;2023-04-15T06:41:48;100008.66;;;5.64;100.00
51439;BME280;38816;51.142;-0.974;2023-04-15T06:44:13;100026.91;;;5.76;100.00
51439;BME280;38816;51.142;-0.974;2023-04-15T06:46:38;100022.72;;;5.78;100.00
51439;BME280;38816;51.142;-0.974;2023-04-15T06:49:04;100026.38;;;5.87;100.00
51439;BME280;38816;51.142;-0.974;2023-04-15T06:51:29;100027.09;;;5.82;100.00
51439;BME280;38816;51.142;-0.974;2023-04-15T06:53:55;100034.28;;;5.94;100.00
51439;BME280;38816;51.142;-0.974;2023-04-15T06:56:21;100033.91;;;5.83;100.00
51439;BME280;38816;51.142;-0.974;2023-04-15T06:58:47;100035.25;;;5.98;100.00
51439;BME280;38816;51.142;-0.974;2023-04-15T07:01:12;100049.09;;;6.04;100.00
51439;BME280;38816;51.142;-0.974;2023-04-15T07:03:38;100040.56;;;6.04;100.00
51439;BME280;38816;51.142;-0.974;2023-04-15T07:06:03;100045.41;;;5.96;100.00
51439;BME280;38816;51.142;-0.974;2023-04-15T07:08:32;100064.41;;;6.04;100.00
51439;BME280;38816;51.142;-0.974;2023-04-15T07:10:58;100054.06;;;6.01;100.00
51439;BME280;38816;51.142;-0.974;2023-04-15T07:13:24;100064.63;;;6.12;100.00
51439;BME280;38816;51.142;-0.974;2023-04-15T07:15:49;100067.94;;;6.37;100.00
51439;BME280;38816;51.142;-0.974;2023-04-15T07:18:15;100083.72;;;6.52;100.00
51439;BME280;38816;51.142;-0.974;2023-04-15T07:20:40;100105.66;;;6.45;100.00
51439;BME280;38816;51.142;-0.974;2023-04-15T07:23:05;100092.69;;;6.39;100.00
51439;BME280;38816;51.142;-0.974;2023-04-15T07:25:31;100078.47;;;6.47;100.00
51439;BME280;38816;51.142;-0.974;2023-04-15T07:27:56;100094.19;;;6.61;100.00
51439;BME280;38816;51.142;-0.974;2023-04-15T07:30:22;100097.94;;;6.72;100.00
51439;BME280;38816;51.142;-0.974;2023-04-15T07:32:47;100096.22;;;6.71;100.00
51439;BME280;38816;51.142;-0.974;2023-04-15T07:35:13;100113.66;;;6.84;100.00
51439;BME280;38816;51.142;-0.974;2023-04-15T07:37:38;100117.09;;;6.87;100.00
51439;BME280;38816;51.142;-0.974;2023-04-15T07:40:04;100112.72;;;6.82;100.00
51439;BME280;38816;51.142;-0.974;2023-04-15T07:42:32;100123.94;;;6.88;100.00
51439;BME280;38816;51.142;-0.974;2023-04-15T07:44:58;100122.47;;;6.96;100.00
51439;BME280;38816;51.142;-0.974;2023-04-15T07:47:23;100118.81;;;6.88;100.00
51439;BME280;38816;51.142;-0.974;2023-04-15T07:49:48;100137.94;;;7.00;100.00
51439;BME280;38816;51.142;-0.974;2023-04-15T07:52:15;100141.50;;;7.05;100.00
51439;BME280;38816;51.142;-0.974;2023-04-15T07:54:41;100126.16;;;7.05;100.00
51439;BME280;38816;51.142;-0.974;2023-04-15T07:57:06;100147.94;;;7.21;100.00
51439;BME280;38816;51.142;-0.974;2023-04-15T07:59:32;100147.06;;;7.21;100.00
51439;BME280;38816;51.142;-0.974;2023-04-15T08:01:57;100158.47;;;7.33;100.00
51439;BME280;38816;51.142;-0.974;2023-04-15T08:04:23;100175.75;;;7.42;100.00
51439;BME280;38816;51.142;-0.974;2023-04-15T08:06:49;100168.22;;;7.47;100.00
51439;BME280;38816;51.142;-0.974;2023-04-15T08:09:15;100169.41;;;7.58;100.00
51439;BME280;38816;51.142;-0.974;2023-04-15T08:11:40;100174.72;;;7.66;100.00
51439;BME280;38816;51.142;-0.974;2023-04-15T08:14:06;100180.59;;;7.61;100.00
51439;BME280;38816;51.142;-0.974;2023-04-15T08:16:31;100176.97;;;7.55;100.00
51439;BME280;38816;51.142;-0.974;2023-04-15T08:18:57;100193.63;;;7.71;100.00
51439;BME280;38816;51.142;-0.974;2023-04-15T08:21:23;100173.34;;;7.78;100.00
51439;BME280;38816;51.142;-0.974;2023-04-15T08:23:49;100195.97;;;7.95;100.00
51439;BME280;38816;51.142;-0.974;2023-04-15T08:26:16;100199.50;;;8.00;100.00
51439;BME280;38816;51.142;-0.974;2023-04-15T08:28:42;100196.94;;;8.00;100.00
51439;BME280;38816;51.142;-0.974;2023-04-15T08:31:08;100191.97;;;8.06;100.00
51439;BME280;38816;51.142;-0.974;2023-04-15T08:33:33;100191.50;;;8.21;100.00
51439;BME280;38816;51.142;-0.974;2023-04-15T08:36:02;100209.59;;;8.27;100.00
51439;BME280;38816;51.142;-0.974;2023-04-15T08:38:27;100204.34;;;8.22;100.00
51439;BME280;38816;51.142;-0.974;2023-04-15T08:40:52;100221.88;;;8.39;100.00
51439;BME280;38816;51.142;-0.974;2023-04-15T08:43:23;100228.31;;;8.57;100.00
51439;BME280;38816;51.142;-0.974;2023-04-15T08:45:53;100225.72;;;8.56;100.00
51439;BME280;38816;51.142;-0.974;2023-04-15T08:48:20;100240.50;;;8.68;100.00
51439;BME280;38816;51.142;-0.974;2023-04-15T08:50:47;100240.59;;;8.72;100.00
51439;BME280;38816;51.142;-0.974;2023-04-15T08:53:13;100244.91;;;8.73;100.00
51439;BME280;38816;51.142;-0.974;2023-04-15T08:55:42;100250.88;;;8.72;100.00
51439;BME280;38816;51.142;-0.974;2023-04-15T08:58:14;100259.53;;;8.77;100.00
51439;BME280;38816;51.142;-0.974;2023-04-15T09:00:40;100264.38;;;8.65;100.00
51439;BME280;38816;51.142;-0.974;2023-04-15T09:03:07;100265.94;;;8.60;100.00
51439;BME280;38816;51.142;-0.974;2023-04-15T09:05:33;100285.84;;;8.70;100.00
51439;BME280;38816;51.142;-0.974;2023-04-15T09:07:59;100285.03;;;8.73;100.00
51439;BME280;38816;51.142;-0.974;2023-04-15T09:10:25;100283.72;;;8.88;100.00
51439;BME280;38816;51.142;-0.974;2023-04-15T09:12:51;100272.34;;;8.77;100.00
51439;BME280;38816;51.142;-0.974;2023-04-15T09:15:17;100298.28;;;8.90;100.00
51439;BME280;38816;51.142;-0.974;2023-04-15T09:17:43;100275.97;;;8.85;100.00
51439;BME280;38816;51.142;-0.974;2023-04-15T09:20:11;100296.06;;;9.05;100.00
51439;BME280;38816;51.142;-0.974;2023-04-15T09:22:40;100298.03;;;9.15;100.00
51439;BME280;38816;51.142;-0.974;2023-04-15T09:25:27;100308.97;;;9.46;100.00
51439;BME280;38816;51.142;-0.974;2023-04-15T09:27:58;100304.53;;;9.38;100.00
51439;BME280;38816;51.142;-0.974;2023-04-15T09:30:24;100313.28;;;9.47;100.00
51439;BME280;38816;51.142;-0.974;2023-04-15T09:32:55;100317.94;;;9.64;100.00
51439;BME280;38816;51.142;-0.974;2023-04-15T09:35:22;100311.31;;;9.76;100.00
51439;BME280;38816;51.142;-0.974;2023-04-15T09:37:48;100307.13;;;9.79;100.00
51439;BME280;38816;51.142;-0.974;2023-04-15T09:40:30;100326.16;;;9.90;100.00
51439;BME280;38816;51.142;-0.974;2023-04-15T09:42:56;100335.75;;;9.99;100.00
51439;BME280;38816;51.142;-0.974;2023-04-15T09:45:22;100342.47;;;9.93;100.00
51439;BME280;38816;51.142;-0.974;2023-04-15T09:47:48;100334.50;;;9.80;100.00
51439;BME280;38816;51.142;-0.974;2023-04-15T09:50:16;100352.53;;;9.82;100.00
51439;BME280;38816;51.142;-0.974;2023-04-15T09:52:43;100347.44;;;9.85;100.00
51439;BME280;38816;51.142;-0.974;2023-04-15T09:55:09;100345.06;;;9.93;100.00
51439;BME280;38816;51.142;-0.974;2023-04-15T09:57:36;100351.41;;;10.11;100.00
51439;BME280;38816;51.142;-0.974;2023-04-15T10:00:03;100350.81;;;10.23;100.00
51439;BME280;38816;51.142;-0.974;2023-04-15T10:02:29;100368.34;;;10.44;100.00
51439;BME280;38816;51.142;-0.974;2023-04-15T10:04:56;100357.50;;;10.59;100.00
51439;BME280;38816;51.142;-0.974;2023-04-15T10:07:22;100361.91;;;10.66;100.00
51439;BME280;38816;51.142;-0.974;2023-04-15T10:09:48;100364.06;;;10.92;100.00
51439;BME280;38816;51.142;-0.974;2023-04-15T10:12:16;100365.00;;;10.95;100.00
51439;BME280;38816;51.142;-0.974;2023-04-15T10:14:41;100378.47;;;10.82;100.00
51439;BME280;38816;51.142;-0.974;2023-04-15T10:17:10;100377.22;;;10.60;100.00
51439;BME280;38816;51.142;-0.974;2023-04-15T10:19:36;100378.72;;;10.49;100.00
51439;BME280;38816;51.142;-0.974;2023-04-15T10:22:02;100379.47;;;10.43;100.00
51439;BME280;38816;51.142;-0.974;2023-04-15T10:24:30;100375.09;;;10.37;100.00
51439;BME280;38816;51.142;-0.974;2023-04-15T10:26:56;100389.00;;;10.49;100.00
51439;BME280;38816;51.142;-0.974;2023-04-15T10:29:24;100376.22;;;10.52;100.00
51439;BME280;38816;51.142;-0.974;2023-04-15T10:31:53;100396.94;;;10.61;100.00
51439;BME280;38816;51.142;-0.974;2023-04-15T10:34:19;100399.63;;;10.67;100.00
51439;BME280;38816;51.142;-0.974;2023-04-15T10:36:45;100407.31;;;10.64;100.00
51439;BME280;38816;51.142;-0.974;2023-04-15T10:39:49;100413.38;;;10.68;100.00
51439;BME280;38816;51.142;-0.974;2023-04-15T10:42:17;100404.75;;;10.65;100.00
51439;BME280;38816;51.142;-0.974;2023-04-15T10:44:50;100417.91;;;10.81;100.00
51439;BME280;38816;51.142;-0.974;2023-04-15T10:47:18;100422.38;;;10.91;100.00
51439;BME280;38816;51.142;-0.974;2023-04-15T10:52:17;100413.00;;;11.46;100.00
51439;BME280;38816;51.142;-0.974;2023-04-15T10:54:46;100419.94;;;12.09;97.54
51439;BME280;38816;51.142;-0.974;2023-04-15T10:57:21;100421.63;;;12.07;95.89
51439;BME280;38816;51.142;-0.974;2023-04-15T11:00:11;100414.59;;;11.94;96.26
51439;BME280;38816;51.142;-0.974;2023-04-15T11:05:06;100427.66;;;12.11;93.03
51439;BME280;38816;51.142;-0.974;2023-04-15T11:07:52;100432.94;;;12.19;90.34
51439;BME280;38816;51.142;-0.974;2023-04-15T11:13:36;100453.28;;;11.99;89.91
51439;BME280;38816;51.142;-0.974;2023-04-15T11:15:41;100463.06;;;11.65;90.61
51439;BME280;38816;51.142;-0.974;2023-04-15T11:18:10;100469.09;;;11.67;95.19
51439;BME280;38816;51.142;-0.974;2023-04-15T11:20:38;100469.13;;;11.70;93.71
51439;BME280;38816;51.142;-0.974;2023-04-15T11:23:04;100449.50;;;11.75;93.60
51439;BME280;38816;51.142;-0.974;2023-04-15T11:25:31;100448.00;;;11.89;92.88
51439;BME280;38816;51.142;-0.974;2023-04-15T11:27:58;100458.38;;;11.94;88.40
51439;BME280;38816;51.142;-0.974;2023-04-15T11:30:26;100470.19;;;11.81;88.44
51439;BME280;38816;51.142;-0.974;2023-04-15T11:32:54;100464.28;;;11.87;88.40
51439;BME280;38816;51.142;-0.974;2023-04-15T11:35:19;100479.13;;;12.05;91.83
51439;BME280;38816;51.142;-0.974;2023-04-15T11:37:46;100475.97;;;12.24;91.97
51439;BME280;38816;51.142;-0.974;2023-04-15T11:40:13;100492.44;;;12.34;85.83
51439;BME280;38816;51.142;-0.974;2023-04-15T11:42:40;100481.84;;;12.15;88.66
51439;BME280;38816;51.142;-0.974;2023-04-15T11:45:10;100488.66;;;12.10;89.05
51439;BME280;38816;51.142;-0.974;2023-04-15T11:47:37;100494.81;;;12.20;87.47
51439;BME280;38816;51.142;-0.974;2023-04-15T11:50:21;100502.44;;;12.12;86.26
51439;BME280;38816;51.142;-0.974;2023-04-15T11:52:58;100505.69;;;11.99;87.23
51439;BME280;38816;51.142;-0.974;2023-04-15T11:55:27;100515.09;;;11.97;88.17
51439;BME280;38816;51.142;-0.974;2023-04-15T11:58:12;100519.50;;;12.04;87.64
51439;BME280;38816;51.142;-0.974;2023-04-15T12:00:39;100509.34;;;12.15;88.34
51439;BME280;38816;51.142;-0.974;2023-04-15T12:11:27;100516.75;;;12.54;85.95
51439;BME280;38816;51.142;-0.974;2023-04-15T12:16:33;100519.75;;;12.21;87.87
51439;BME280;38816;51.142;-0.974;2023-04-15T12:18:59;100525.66;;;12.15;90.69
51439;BME280;38816;51.142;-0.974;2023-04-15T12:21:27;100526.44;;;12.10;88.63
51439;BME280;38816;51.142;-0.974;2023-04-15T12:24:01;100529.06;;;12.11;89.43
51439;BME280;38816;51.142;-0.974;2023-04-15T12:29:06;100529.38;;;12.34;89.70
51439;BME280;38816;51.142;-0.974;2023-04-15T12:31:33;100540.00;;;12.59;89.12
51439;BME280;38816;51.142;-0.974;2023-04-15T12:34:00;100535.19;;;12.86;88.77
51439;BME280;38816;51.142;-0.974;2023-04-15T12:36:26;100528.50;;;13.04;86.05
51439;BME280;38816;51.142;-0.974;2023-04-15T12:38:52;100530.31;;;13.11;86.10
51439;BME280;38816;51.142;-0.974;2023-04-15T12:41:19;100531.16;;;13.10;83.39
51439;BME280;38816;51.142;-0.974;2023-04-15T12:43:45;100534.69;;;13.16;82.49
51439;BME280;38816;51.142;-0.974;2023-04-15T12:46:12;100541.75;;;13.30;83.58
51439;BME280;38816;51.142;-0.974;2023-04-15T12:48:37;100527.88;;;13.23;81.34
51439;BME280;38816;51.142;-0.974;2023-04-15T12:51:03;100539.13;;;13.28;83.25
51439;BME280;38816;51.142;-0.974;2023-04-15T12:53:28;100547.72;;;13.27;80.88
51439;BME280;38816;51.142;-0.974;2023-04-15T12:55:54;100543.19;;;13.08;82.96
51439;BME280;38816;51.142;-0.974;2023-04-15T12:58:20;100558.19;;;12.70;84.80
51439;BME280;38816;51.142;-0.974;2023-04-15T13:00:45;100552.16;;;12.66;83.59
51439;BME280;38816;51.142;-0.974;2023-04-15T13:03:11;100563.63;;;12.89;87.82
51439;BME280;38816;51.142;-0.974;2023-04-15T13:05:37;100552.44;;;12.90;85.85
51439;BME280;38816;51.142;-0.974;2023-04-15T13:08:04;100559.59;;;13.11;87.33